sensor_id;sensor_type;location;lat;lon;timestamp;P1;durP1;ratioP1;P2;durP2;ratioP2
34928;SDS011;21133;48.048;7.724;2023-03-23T00:01:53;2.50;;;2.30;;
34928;SDS011;21133;48.048;7.724;2023-03-23T00:04:20;2.33;;;2.20;;
34928;SDS011;21133;48.048;7.724;2023-03-23T00:06:46;13.80;;;9.00;;
34928;SDS011;21133;48.048;7.724;2023-03-23T00:09:13;6.80;;;4.87;;
34928;SDS011;21133;48.048;7.724;2023-03-23T00:11:40;2.07;;;1.97;;
34928;SDS011;21133;48.048;7.724;2023-03-23T00:14:06;2.27;;;2.17;;
34928;SDS011;21133;48.048;7.724;2023-03-23T00:16:37;2.30;;;2.20;;
34928;SDS011;21133;48.048;7.724;2023-03-23T00:19:06;2.57;;;2.43;;
34928;SDS011;21133;48.048;7.724;2023-03-23T00:21:33;2.60;;;2.50;;
34928;SDS011;21133;48.048;7.724;2023-03-23T00:24:07;7.67;;;5.80;;
34928;SDS011;21133;48.048;7.724;2023-03-23T00:26:33;5.23;;;4.73;;
34928;SDS011;21133;48.048;7.724;2023-03-23T00:29:00;2.93;;;2.80;;
34928;SDS011;21133;48.048;7.724;2023-03-23T00:31:27;4.17;;;2.93;;
34928;SDS011;21133;48.048;7.724;2023-03-23T00:33:56;3.27;;;3.10;;
34928;SDS011;21133;48.048;7.724;2023-03-23T00:36:23;4.07;;;3.37;;
34928;SDS011;21133;48.048;7.724;2023-03-23T00:38:49;3.90;;;3.60;;
34928;SDS011;21133;48.048;7.724;2023-03-23T00:41:15;4.13;;;2.90;;
34928;SDS011;21133;48.048;7.724;2023-03-23T00:43:41;2.63;;;2.37;;
34928;SDS011;21133;48.048;7.724;2023-03-23T00:46:07;2.67;;;2.47;;
34928;SDS011;21133;48.048;7.724;2023-03-23T00:48:34;2.70;;;2.50;;
34928;SDS011;21133;48.048;7.724;2023-03-23T00:51:01;2.90;;;2.00;;
34928;SDS011;21133;48.048;7.724;2023-03-23T00:53:31;2.13;;;2.13;;
34928;SDS011;21133;48.048;7.724;2023-03-23T00:55:57;3.17;;;2.97;;
34928;SDS011;21133;48.048;7.724;2023-03-23T00:58:23;2.40;;;2.20;;
34928;SDS011;21133;48.048;7.724;2023-03-23T01:00:49;3.50;;;2.10;;
34928;SDS011;21133;48.048;7.724;2023-03-23T01:03:15;3.30;;;3.00;;
34928;SDS011;21133;48.048;7.724;2023-03-23T01:05:43;3.23;;;3.00;;
34928;SDS011;21133;48.048;7.724;2023-03-23T01:08:11;5.23;;;2.77;;
34928;SDS011;21133;48.048;7.724;2023-03-23T01:10:38;1.93;;;1.83;;
34928;SDS011;21133;48.048;7.724;2023-03-23T01:13:04;3.73;;;3.40;;
34928;SDS011;21133;48.048;7.724;2023-03-23T01:15:30;4.50;;;3.63;;
34928;SDS011;21133;48.048;7.724;2023-03-23T01:17:57;3.00;;;2.70;;
34928;SDS011;21133;48.048;7.724;2023-03-23T01:20:23;2.50;;;2.40;;
34928;SDS011;21133;48.048;7.724;2023-03-23T01:22:51;1.90;;;1.80;;
34928;SDS011;21133;48.048;7.724;2023-03-23T01:25:18;1.20;;;0.97;;
34928;SDS011;21133;48.048;7.724;2023-03-23T01:27:44;1.23;;;1.23;;
34928;SDS011;21133;48.048;7.724;2023-03-23T01:30:11;1.30;;;1.20;;
34928;SDS011;21133;48.048;7.724;2023-03-23T01:32:37;3.63;;;1.47;;
34928;SDS011;21133;48.048;7.724;2023-03-23T01:35:03;1.00;;;1.00;;
34928;SDS011;21133;48.048;7.724;2023-03-23T01:37:30;1.00;;;1.00;;
34928;SDS011;21133;48.048;7.724;2023-03-23T01:39:56;0.60;;;0.60;;
34928;SDS011;21133;48.048;7.724;2023-03-23T01:42:25;0.70;;;0.70;;
34928;SDS011;21133;48.048;7.724;2023-03-23T01:47:21;0.70;;;0.70;;
34928;SDS011;21133;48.048;7.724;2023-03-23T01:49:48;0.93;;;0.93;;
34928;SDS011;21133;48.048;7.724;2023-03-23T01:52:33;0.80;;;0.80;;
34928;SDS011;21133;48.048;7.724;2023-03-23T01:55:01;1.13;;;1.13;;
34928;SDS011;21133;48.048;7.724;2023-03-23T01:57:27;0.80;;;0.80;;
34928;SDS011;21133;48.048;7.724;2023-03-23T01:59:55;0.60;;;0.60;;
34928;SDS011;21133;48.048;7.724;2023-03-23T02:02:23;0.90;;;0.90;;
34928;SDS011;21133;48.048;7.724;2023-03-23T02:04:49;0.70;;;0.70;;
34928;SDS011;21133;48.048;7.724;2023-03-23T02:07:17;0.77;;;0.77;;
34928;SDS011;21133;48.048;7.724;2023-03-23T02:09:43;0.60;;;0.60;;
34928;SDS011;21133;48.048;7.724;2023-03-23T02:12:10;0.67;;;0.67;;
34928;SDS011;21133;48.048;7.724;2023-03-23T02:14:37;1.23;;;1.23;;
34928;SDS011;21133;48.048;7.724;2023-03-23T02:17:10;0.60;;;0.60;;
34928;SDS011;21133;48.048;7.724;2023-03-23T02:22:14;1.70;;;0.63;;
34928;SDS011;21133;48.048;7.724;2023-03-23T02:27:14;0.80;;;0.80;;
34928;SDS011;21133;48.048;7.724;2023-03-23T02:35:06;1.13;;;1.03;;
34928;SDS011;21133;48.048;7.724;2023-03-23T02:37:43;0.63;;;0.63;;
34928;SDS011;21133;48.048;7.724;2023-03-23T02:40:18;0.70;;;0.70;;
34928;SDS011;21133;48.048;7.724;2023-03-23T02:42:47;0.77;;;0.77;;
34928;SDS011;21133;48.048;7.724;2023-03-23T02:45:14;0.80;;;0.80;;
34928;SDS011;21133;48.048;7.724;2023-03-23T02:47:41;0.70;;;0.70;;
34928;SDS011;21133;48.048;7.724;2023-03-23T02:50:08;1.13;;;0.73;;
34928;SDS011;21133;48.048;7.724;2023-03-23T02:52:36;0.90;;;0.90;;
34928;SDS011;21133;48.048;7.724;2023-03-23T02:55:02;0.73;;;0.73;;
34928;SDS011;21133;48.048;7.724;2023-03-23T02:57:28;0.77;;;0.77;;
34928;SDS011;21133;48.048;7.724;2023-03-23T02:59:55;0.80;;;0.80;;
34928;SDS011;21133;48.048;7.724;2023-03-23T03:02:21;0.77;;;0.77;;
34928;SDS011;21133;48.048;7.724;2023-03-23T03:07:32;0.70;;;0.70;;
34928;SDS011;21133;48.048;7.724;2023-03-23T03:10:08;0.83;;;0.83;;
34928;SDS011;21133;48.048;7.724;2023-03-23T03:15:36;0.90;;;0.90;;
34928;SDS011;21133;48.048;7.724;2023-03-23T03:18:05;0.97;;;0.97;;
34928;SDS011;21133;48.048;7.724;2023-03-23T03:20:34;1.73;;;0.90;;
34928;SDS011;21133;48.048;7.724;2023-03-23T03:23:03;3.13;;;0.70;;
34928;SDS011;21133;48.048;7.724;2023-03-23T03:25:29;0.90;;;0.90;;
34928;SDS011;21133;48.048;7.724;2023-03-23T03:27:56;0.70;;;0.70;;
34928;SDS011;21133;48.048;7.724;2023-03-23T03:30:24;0.80;;;0.70;;
34928;SDS011;21133;48.048;7.724;2023-03-23T03:32:52;2.33;;;0.90;;
34928;SDS011;21133;48.048;7.724;2023-03-23T03:35:18;1.10;;;1.00;;
34928;SDS011;21133;48.048;7.724;2023-03-23T03:37:45;1.47;;;0.90;;
34928;SDS011;21133;48.048;7.724;2023-03-23T03:40:13;0.67;;;0.67;;
34928;SDS011;21133;48.048;7.724;2023-03-23T03:42:40;5.50;;;0.93;;
34928;SDS011;21133;48.048;7.724;2023-03-23T03:45:11;0.60;;;0.60;;
34928;SDS011;21133;48.048;7.724;2023-03-23T03:47:37;0.80;;;0.80;;
34928;SDS011;21133;48.048;7.724;2023-03-23T03:50:03;0.70;;;0.70;;
34928;SDS011;21133;48.048;7.724;2023-03-23T03:52:29;0.53;;;0.53;;
34928;SDS011;21133;48.048;7.724;2023-03-23T03:54:55;1.03;;;1.03;;
34928;SDS011;21133;48.048;7.724;2023-03-23T03:57:21;0.60;;;0.60;;
34928;SDS011;21133;48.048;7.724;2023-03-23T03:59:47;1.00;;;1.00;;
34928;SDS011;21133;48.048;7.724;2023-03-23T04:02:13;2.83;;;1.07;;
34928;SDS011;21133;48.048;7.724;2023-03-23T04:04:41;0.87;;;0.87;;
34928;SDS011;21133;48.048;7.724;2023-03-23T04:07:08;0.50;;;0.50;;
34928;SDS011;21133;48.048;7.724;2023-03-23T04:09:39;0.80;;;0.80;;
34928;SDS011;21133;48.048;7.724;2023-03-23T04:12:05;1.07;;;0.90;;
34928;SDS011;21133;48.048;7.724;2023-03-23T04:14:31;0.80;;;0.80;;
34928;SDS011;21133;48.048;7.724;2023-03-23T04:16:57;1.80;;;0.80;;
34928;SDS011;21133;48.048;7.724;2023-03-23T04:19:24;0.60;;;0.60;;
34928;SDS011;21133;48.048;7.724;2023-03-23T04:21:50;2.50;;;0.90;;
34928;SDS011;21133;48.048;7.724;2023-03-23T04:24:16;0.80;;;0.80;;
34928;SDS011;21133;48.048;7.724;2023-03-23T04:26:46;0.87;;;0.87;;
34928;SDS011;21133;48.048;7.724;2023-03-23T04:29:11;0.97;;;0.70;;
34928;SDS011;21133;48.048;7.724;2023-03-23T04:31:38;5.93;;;0.83;;
34928;SDS011;21133;48.048;7.724;2023-03-23T04:34:04;1.03;;;0.87;;
34928;SDS011;21133;48.048;7.724;2023-03-23T04:36:30;1.00;;;1.00;;
34928;SDS011;21133;48.048;7.724;2023-03-23T04:38:59;0.70;;;0.70;;
34928;SDS011;21133;48.048;7.724;2023-03-23T04:41:25;1.00;;;1.00;;
34928;SDS011;21133;48.048;7.724;2023-03-23T04:43:52;0.87;;;0.87;;
34928;SDS011;21133;48.048;7.724;2023-03-23T04:46:19;1.33;;;1.10;;
34928;SDS011;21133;48.048;7.724;2023-03-23T04:48:46;1.53;;;1.27;;
34928;SDS011;21133;48.048;7.724;2023-03-23T04:51:12;3.00;;;0.60;;
34928;SDS011;21133;48.048;7.724;2023-03-23T04:53:39;2.67;;;1.43;;
34928;SDS011;21133;48.048;7.724;2023-03-23T04:56:06;7.73;;;1.13;;
34928;SDS011;21133;48.048;7.724;2023-03-23T04:58:32;1.03;;;1.03;;
34928;SDS011;21133;48.048;7.724;2023-03-23T05:00:59;1.23;;;0.83;;
34928;SDS011;21133;48.048;7.724;2023-03-23T05:03:24;1.30;;;1.00;;
34928;SDS011;21133;48.048;7.724;2023-03-23T05:05:51;1.20;;;1.20;;
34928;SDS011;21133;48.048;7.724;2023-03-23T05:08:21;0.87;;;0.87;;
34928;SDS011;21133;48.048;7.724;2023-03-23T05:10:55;1.47;;;1.37;;
34928;SDS011;21133;48.048;7.724;2023-03-23T05:13:21;3.70;;;1.00;;
34928;SDS011;21133;48.048;7.724;2023-03-23T05:15:47;0.90;;;0.90;;
34928;SDS011;21133;48.048;7.724;2023-03-23T05:18:14;1.00;;;1.00;;
34928;SDS011;21133;48.048;7.724;2023-03-23T05:20:40;1.03;;;0.97;;
34928;SDS011;21133;48.048;7.724;2023-03-23T05:23:07;6.13;;;1.00;;
34928;SDS011;21133;48.048;7.724;2023-03-23T05:25:33;0.93;;;0.93;;
34928;SDS011;21133;48.048;7.724;2023-03-23T05:28:06;1.00;;;1.00;;
34928;SDS011;21133;48.048;7.724;2023-03-23T05:30:32;1.27;;;1.27;;
34928;SDS011;21133;48.048;7.724;2023-03-23T05:32:59;1.20;;;1.10;;
34928;SDS011;21133;48.048;7.724;2023-03-23T05:35:25;1.13;;;1.13;;
34928;SDS011;21133;48.048;7.724;2023-03-23T05:37:52;0.90;;;0.90;;
34928;SDS011;21133;48.048;7.724;2023-03-23T05:40:22;2.37;;;1.00;;
34928;SDS011;21133;48.048;7.724;2023-03-23T05:42:50;1.47;;;1.37;;
34928;SDS011;21133;48.048;7.724;2023-03-23T05:45:16;1.10;;;1.10;;
34928;SDS011;21133;48.048;7.724;2023-03-23T05:47:43;1.63;;;1.63;;
34928;SDS011;21133;48.048;7.724;2023-03-23T05:50:09;1.63;;;1.63;;
34928;SDS011;21133;48.048;7.724;2023-03-23T05:52:36;2.10;;;1.13;;
34928;SDS011;21133;48.048;7.724;2023-03-23T05:55:02;1.47;;;1.37;;
34928;SDS011;21133;48.048;7.724;2023-03-23T05:57:28;1.70;;;1.03;;
34928;SDS011;21133;48.048;7.724;2023-03-23T05:59:54;1.00;;;1.00;;
34928;SDS011;21133;48.048;7.724;2023-03-23T06:02:22;1.40;;;1.30;;
34928;SDS011;21133;48.048;7.724;2023-03-23T06:04:49;1.70;;;1.27;;
34928;SDS011;21133;48.048;7.724;2023-03-23T06:07:15;1.60;;;1.60;;
34928;SDS011;21133;48.048;7.724;2023-03-23T06:09:41;1.73;;;1.63;;
34928;SDS011;21133;48.048;7.724;2023-03-23T06:12:07;1.47;;;1.37;;
34928;SDS011;21133;48.048;7.724;2023-03-23T06:14:34;1.50;;;1.40;;
34928;SDS011;21133;48.048;7.724;2023-03-23T06:17:00;1.23;;;1.20;;
34928;SDS011;21133;48.048;7.724;2023-03-23T06:19:26;1.30;;;1.30;;
34928;SDS011;21133;48.048;7.724;2023-03-23T06:21:53;1.10;;;1.10;;
34928;SDS011;21133;48.048;7.724;2023-03-23T06:24:20;1.37;;;0.97;;
34928;SDS011;21133;48.048;7.724;2023-03-23T06:26:46;1.20;;;1.20;;
34928;SDS011;21133;48.048;7.724;2023-03-23T06:29:12;1.07;;;1.07;;
34928;SDS011;21133;48.048;7.724;2023-03-23T06:31:42;1.20;;;1.20;;
34928;SDS011;21133;48.048;7.724;2023-03-23T06:34:08;2.00;;;1.80;;
34928;SDS011;21133;48.048;7.724;2023-03-23T06:36:35;4.60;;;1.60;;
34928;SDS011;21133;48.048;7.724;2023-03-23T06:39:02;2.60;;;2.47;;
34928;SDS011;21133;48.048;7.724;2023-03-23T06:41:33;1.47;;;1.47;;
34928;SDS011;21133;48.048;7.724;2023-03-23T06:44:00;1.70;;;1.70;;
34928;SDS011;21133;48.048;7.724;2023-03-23T06:46:26;1.40;;;1.40;;
34928;SDS011;21133;48.048;7.724;2023-03-23T06:48:53;1.30;;;1.20;;
34928;SDS011;21133;48.048;7.724;2023-03-23T06:51:19;1.70;;;1.60;;
34928;SDS011;21133;48.048;7.724;2023-03-23T06:53:46;1.43;;;1.43;;
34928;SDS011;21133;48.048;7.724;2023-03-23T06:56:12;1.23;;;1.23;;
34928;SDS011;21133;48.048;7.724;2023-03-23T06:58:38;4.43;;;1.83;;
34928;SDS011;21133;48.048;7.724;2023-03-23T07:01:04;1.37;;;1.37;;
34928;SDS011;21133;48.048;7.724;2023-03-23T07:03:32;1.70;;;1.27;;
34928;SDS011;21133;48.048;7.724;2023-03-23T07:05:58;2.43;;;1.37;;
34928;SDS011;21133;48.048;7.724;2023-03-23T07:08:24;1.20;;;1.20;;
34928;SDS011;21133;48.048;7.724;2023-03-23T07:10:51;1.27;;;1.27;;
34928;SDS011;21133;48.048;7.724;2023-03-23T07:13:17;1.10;;;1.10;;
34928;SDS011;21133;48.048;7.724;2023-03-23T07:15:44;1.27;;;1.10;;
34928;SDS011;21133;48.048;7.724;2023-03-23T07:18:10;1.10;;;1.10;;
34928;SDS011;21133;48.048;7.724;2023-03-23T07:20:36;2.30;;;1.40;;
34928;SDS011;21133;48.048;7.724;2023-03-23T07:23:04;1.10;;;1.10;;
34928;SDS011;21133;48.048;7.724;2023-03-23T07:25:33;1.50;;;1.40;;
34928;SDS011;21133;48.048;7.724;2023-03-23T07:28:00;1.63;;;1.53;;
34928;SDS011;21133;48.048;7.724;2023-03-23T07:30:26;1.17;;;1.17;;
34928;SDS011;21133;48.048;7.724;2023-03-23T07:32:57;2.00;;;1.60;;
34928;SDS011;21133;48.048;7.724;2023-03-23T07:35:23;1.30;;;1.20;;
34928;SDS011;21133;48.048;7.724;2023-03-23T07:37:50;1.97;;;1.87;;
34928;SDS011;21133;48.048;7.724;2023-03-23T07:40:16;1.60;;;1.50;;
34928;SDS011;21133;48.048;7.724;2023-03-23T07:42:43;1.10;;;1.10;;
34928;SDS011;21133;48.048;7.724;2023-03-23T07:45:10;1.10;;;1.10;;
34928;SDS011;21133;48.048;7.724;2023-03-23T07:47:37;1.20;;;1.20;;
34928;SDS011;21133;48.048;7.724;2023-03-23T07:50:03;1.40;;;1.40;;
34928;SDS011;21133;48.048;7.724;2023-03-23T07:52:29;3.13;;;1.50;;
34928;SDS011;21133;48.048;7.724;2023-03-23T07:54:56;1.60;;;1.30;;
34928;SDS011;21133;48.048;7.724;2023-03-23T07:57:22;4.73;;;1.43;;
34928;SDS011;21133;48.048;7.724;2023-03-23T07:59:48;2.20;;;1.33;;
34928;SDS011;21133;48.048;7.724;2023-03-23T08:02:14;1.10;;;1.10;;
34928;SDS011;21133;48.048;7.724;2023-03-23T08:04:40;4.93;;;1.80;;
34928;SDS011;21133;48.048;7.724;2023-03-23T08:07:07;2.33;;;1.27;;
34928;SDS011;21133;48.048;7.724;2023-03-23T08:09:33;1.47;;;1.47;;
34928;SDS011;21133;48.048;7.724;2023-03-23T08:11:59;1.47;;;1.40;;
34928;SDS011;21133;48.048;7.724;2023-03-23T08:14:25;3.63;;;1.80;;
34928;SDS011;21133;48.048;7.724;2023-03-23T08:16:52;2.10;;;1.50;;
34928;SDS011;21133;48.048;7.724;2023-03-23T08:19:20;1.43;;;1.37;;
34928;SDS011;21133;48.048;7.724;2023-03-23T08:21:46;1.40;;;1.40;;
34928;SDS011;21133;48.048;7.724;2023-03-23T08:24:12;2.03;;;1.37;;
34928;SDS011;21133;48.048;7.724;2023-03-23T08:26:39;6.30;;;1.40;;
34928;SDS011;21133;48.048;7.724;2023-03-23T08:29:05;0.83;;;0.83;;
34928;SDS011;21133;48.048;7.724;2023-03-23T08:31:31;1.43;;;1.37;;
34928;SDS011;21133;48.048;7.724;2023-03-23T08:33:59;1.50;;;1.40;;
34928;SDS011;21133;48.048;7.724;2023-03-23T08:36:25;1.90;;;1.80;;
34928;SDS011;21133;48.048;7.724;2023-03-23T08:38:52;7.83;;;1.70;;
34928;SDS011;21133;48.048;7.724;2023-03-23T08:41:18;1.93;;;1.70;;
34928;SDS011;21133;48.048;7.724;2023-03-23T08:43:46;5.47;;;1.47;;
34928;SDS011;21133;48.048;7.724;2023-03-23T08:46:12;3.63;;;1.40;;
34928;SDS011;21133;48.048;7.724;2023-03-23T08:48:38;3.90;;;1.50;;
34928;SDS011;21133;48.048;7.724;2023-03-23T08:51:05;1.40;;;1.30;;
34928;SDS011;21133;48.048;7.724;2023-03-23T08:53:32;1.37;;;1.37;;
34928;SDS011;21133;48.048;7.724;2023-03-23T08:56:05;4.17;;;1.50;;
34928;SDS011;21133;48.048;7.724;2023-03-23T08:58:31;1.33;;;1.33;;
34928;SDS011;21133;48.048;7.724;2023-03-23T09:00:58;5.07;;;1.80;;
34928;SDS011;21133;48.048;7.724;2023-03-23T09:03:24;2.07;;;1.40;;
34928;SDS011;21133;48.048;7.724;2023-03-23T09:05:50;2.67;;;1.53;;
34928;SDS011;21133;48.048;7.724;2023-03-23T09:08:18;1.43;;;1.30;;
34928;SDS011;21133;48.048;7.724;2023-03-23T09:10:44;1.23;;;1.23;;
34928;SDS011;21133;48.048;7.724;2023-03-23T09:13:10;2.73;;;1.13;;
34928;SDS011;21133;48.048;7.724;2023-03-23T09:15:36;1.63;;;1.63;;
34928;SDS011;21133;48.048;7.724;2023-03-23T09:18:02;1.07;;;1.07;;
34928;SDS011;21133;48.048;7.724;2023-03-23T09:20:29;10.33;;;4.20;;
34928;SDS011;21133;48.048;7.724;2023-03-23T09:22:56;1.27;;;1.27;;
34928;SDS011;21133;48.048;7.724;2023-03-23T09:25:23;2.43;;;1.37;;
34928;SDS011;21133;48.048;7.724;2023-03-23T09:27:54;1.00;;;1.00;;
34928;SDS011;21133;48.048;7.724;2023-03-23T09:30:21;2.80;;;2.70;;
34928;SDS011;21133;48.048;7.724;2023-03-23T09:32:47;1.57;;;1.57;;
34928;SDS011;21133;48.048;7.724;2023-03-23T09:35:13;1.20;;;1.20;;
34928;SDS011;21133;48.048;7.724;2023-03-23T09:37:41;1.20;;;1.10;;
34928;SDS011;21133;48.048;7.724;2023-03-23T09:40:10;1.10;;;1.10;;
34928;SDS011;21133;48.048;7.724;2023-03-23T09:45:28;2.60;;;1.63;;
34928;SDS011;21133;48.048;7.724;2023-03-23T09:47:58;2.00;;;1.90;;
34928;SDS011;21133;48.048;7.724;2023-03-23T09:50:27;2.40;;;1.07;;
34928;SDS011;21133;48.048;7.724;2023-03-23T09:53:01;0.83;;;0.83;;
34928;SDS011;21133;48.048;7.724;2023-03-23T09:55:27;1.77;;;1.17;;
34928;SDS011;21133;48.048;7.724;2023-03-23T09:58:58;1.67;;;1.57;;
34928;SDS011;21133;48.048;7.724;2023-03-23T10:03:22;2.67;;;1.10;;
34928;SDS011;21133;48.048;7.724;2023-03-23T10:05:52;0.87;;;0.87;;
34928;SDS011;21133;48.048;7.724;2023-03-23T10:08:22;1.00;;;0.97;;
34928;SDS011;21133;48.048;7.724;2023-03-23T10:15:56;3.80;;;1.33;;
34928;SDS011;21133;48.048;7.724;2023-03-23T10:18:29;1.23;;;1.23;;
34928;SDS011;21133;48.048;7.724;2023-03-23T10:20:59;1.20;;;1.20;;
34928;SDS011;21133;48.048;7.724;2023-03-23T10:28:52;1.67;;;1.60;;
34928;SDS011;21133;48.048;7.724;2023-03-23T10:31:26;2.53;;;1.20;;
34928;SDS011;21133;48.048;7.724;2023-03-23T10:33:54;1.60;;;1.50;;
34928;SDS011;21133;48.048;7.724;2023-03-23T10:36:26;1.70;;;1.60;;
34928;SDS011;21133;48.048;7.724;2023-03-23T10:39:29;4.53;;;2.17;;
34928;SDS011;21133;48.048;7.724;2023-03-23T10:41:47;20.20;;;2.00;;
34928;SDS011;21133;48.048;7.724;2023-03-23T10:44:16;2.53;;;2.10;;
34928;SDS011;21133;48.048;7.724;2023-03-23T10:49:22;1.30;;;1.30;;
34928;SDS011;21133;48.048;7.724;2023-03-23T10:54:39;1.40;;;1.30;;
34928;SDS011;21133;48.048;7.724;2023-03-23T10:57:12;5.00;;;1.77;;
34928;SDS011;21133;48.048;7.724;2023-03-23T10:59:39;3.13;;;3.03;;
34928;SDS011;21133;48.048;7.724;2023-03-23T11:02:13;2.30;;;2.20;;
34928;SDS011;21133;48.048;7.724;2023-03-23T11:04:41;2.80;;;2.60;;
34928;SDS011;21133;48.048;7.724;2023-03-23T11:07:13;1.90;;;1.40;;
34928;SDS011;21133;48.048;7.724;2023-03-23T11:10:26;2.27;;;2.17;;
34928;SDS011;21133;48.048;7.724;2023-03-23T11:12:34;1.50;;;1.50;;
34928;SDS011;21133;48.048;7.724;2023-03-23T11:15:15;1.93;;;1.10;;
34928;SDS011;21133;48.048;7.724;2023-03-23T11:17:42;7.37;;;5.17;;
34928;SDS011;21133;48.048;7.724;2023-03-23T11:20:11;13.10;;;8.17;;
34928;SDS011;21133;48.048;7.724;2023-03-23T11:22:38;5.60;;;5.10;;
34928;SDS011;21133;48.048;7.724;2023-03-23T11:25:05;7.73;;;5.70;;
34928;SDS011;21133;48.048;7.724;2023-03-23T11:27:32;1.73;;;1.63;;
34928;SDS011;21133;48.048;7.724;2023-03-23T11:30:08;4.27;;;4.10;;
34928;SDS011;21133;48.048;7.724;2023-03-23T11:32:35;2.60;;;2.40;;
34928;SDS011;21133;48.048;7.724;2023-03-23T11:35:06;1.90;;;1.80;;
34928;SDS011;21133;48.048;7.724;2023-03-23T11:37:41;2.00;;;1.90;;
34928;SDS011;21133;48.048;7.724;2023-03-23T11:42:38;6.30;;;5.70;;
34928;SDS011;21133;48.048;7.724;2023-03-23T11:45:15;4.07;;;3.60;;
34928;SDS011;21133;48.048;7.724;2023-03-23T11:47:49;1.73;;;1.73;;
34928;SDS011;21133;48.048;7.724;2023-03-23T11:55:30;4.00;;;3.80;;
34928;SDS011;21133;48.048;7.724;2023-03-23T11:58:00;3.53;;;3.23;;
34928;SDS011;21133;48.048;7.724;2023-03-23T12:00:27;2.40;;;2.40;;
34928;SDS011;21133;48.048;7.724;2023-03-23T12:02:59;6.33;;;5.93;;
34928;SDS011;21133;48.048;7.724;2023-03-23T12:05:40;4.73;;;4.30;;
34928;SDS011;21133;48.048;7.724;2023-03-23T12:13:52;4.80;;;4.40;;
34928;SDS011;21133;48.048;7.724;2023-03-23T12:21:25;5.13;;;4.33;;
34928;SDS011;21133;48.048;7.724;2023-03-23T12:24:02;3.47;;;3.27;;
34928;SDS011;21133;48.048;7.724;2023-03-23T12:26:33;1.70;;;1.70;;
34928;SDS011;21133;48.048;7.724;2023-03-23T12:29:18;6.53;;;4.90;;
34928;SDS011;21133;48.048;7.724;2023-03-23T12:34:35;6.13;;;5.63;;
34928;SDS011;21133;48.048;7.724;2023-03-23T12:40:23;1.33;;;1.33;;
34928;SDS011;21133;48.048;7.724;2023-03-23T12:47:48;3.10;;;1.37;;
34928;SDS011;21133;48.048;7.724;2023-03-23T12:50:18;1.67;;;1.57;;
34928;SDS011;21133;48.048;7.724;2023-03-23T12:57:59;5.10;;;1.47;;
34928;SDS011;21133;48.048;7.724;2023-03-23T13:00:28;1.57;;;1.57;;
34928;SDS011;21133;48.048;7.724;2023-03-23T13:03:09;2.10;;;2.00;;
34928;SDS011;21133;48.048;7.724;2023-03-23T13:05:46;1.50;;;1.47;;
34928;SDS011;21133;48.048;7.724;2023-03-23T13:08:21;1.53;;;1.53;;
34928;SDS011;21133;48.048;7.724;2023-03-23T13:10:49;1.40;;;1.40;;
34928;SDS011;21133;48.048;7.724;2023-03-23T13:13:21;3.33;;;3.17;;
34928;SDS011;21133;48.048;7.724;2023-03-23T13:15:55;1.70;;;1.60;;
34928;SDS011;21133;48.048;7.724;2023-03-23T13:18:40;2.13;;;2.03;;
34928;SDS011;21133;48.048;7.724;2023-03-23T13:23:47;2.70;;;1.23;;
34928;SDS011;21133;48.048;7.724;2023-03-23T13:26:20;4.43;;;1.03;;
34928;SDS011;21133;48.048;7.724;2023-03-23T13:31:19;2.40;;;2.20;;
34928;SDS011;21133;48.048;7.724;2023-03-23T13:33:50;2.63;;;1.70;;
34928;SDS011;21133;48.048;7.724;2023-03-23T13:36:18;2.03;;;2.03;;
34928;SDS011;21133;48.048;7.724;2023-03-23T13:38:45;2.77;;;2.57;;
34928;SDS011;21133;48.048;7.724;2023-03-23T13:41:13;1.57;;;1.40;;
34928;SDS011;21133;48.048;7.724;2023-03-23T13:43:41;1.73;;;1.73;;
34928;SDS011;21133;48.048;7.724;2023-03-23T13:46:10;2.33;;;1.67;;
34928;SDS011;21133;48.048;7.724;2023-03-23T13:48:42;1.13;;;1.13;;
34928;SDS011;21133;48.048;7.724;2023-03-23T13:54:05;0.60;;;0.60;;
34928;SDS011;21133;48.048;7.724;2023-03-23T13:59:34;0.90;;;0.90;;
34928;SDS011;21133;48.048;7.724;2023-03-23T14:04:46;2.10;;;2.10;;
34928;SDS011;21133;48.048;7.724;2023-03-23T14:07:15;2.83;;;2.67;;
34928;SDS011;21133;48.048;7.724;2023-03-23T14:09:44;1.50;;;1.50;;
34928;SDS011;21133;48.048;7.724;2023-03-23T14:12:26;2.93;;;2.73;;
34928;SDS011;21133;48.048;7.724;2023-03-23T14:14:58;5.33;;;1.50;;
34928;SDS011;21133;48.048;7.724;2023-03-23T14:17:28;6.03;;;4.10;;
34928;SDS011;21133;48.048;7.724;2023-03-23T14:19:55;3.10;;;2.90;;
34928;SDS011;21133;48.048;7.724;2023-03-23T14:22:23;1.10;;;1.10;;
34928;SDS011;21133;48.048;7.724;2023-03-23T14:24:49;2.13;;;1.83;;
34928;SDS011;21133;48.048;7.724;2023-03-23T14:27:21;12.33;;;7.20;;
34928;SDS011;21133;48.048;7.724;2023-03-23T14:30:01;8.73;;;3.57;;
34928;SDS011;21133;48.048;7.724;2023-03-23T14:32:28;6.37;;;4.30;;
34928;SDS011;21133;48.048;7.724;2023-03-23T14:34:56;4.57;;;4.20;;
34928;SDS011;21133;48.048;7.724;2023-03-23T14:37:23;3.20;;;3.10;;
34928;SDS011;21133;48.048;7.724;2023-03-23T14:39:52;5.10;;;4.03;;
34928;SDS011;21133;48.048;7.724;2023-03-23T14:42:25;2.13;;;2.13;;
34928;SDS011;21133;48.048;7.724;2023-03-23T14:44:53;3.20;;;3.00;;
34928;SDS011;21133;48.048;7.724;2023-03-23T14:47:42;1.30;;;1.23;;
34928;SDS011;21133;48.048;7.724;2023-03-23T14:50:18;1.60;;;1.50;;
34928;SDS011;21133;48.048;7.724;2023-03-23T14:52:47;1.60;;;1.50;;
34928;SDS011;21133;48.048;7.724;2023-03-23T14:55:16;1.37;;;1.37;;
34928;SDS011;21133;48.048;7.724;2023-03-23T14:57:42;1.83;;;1.47;;
34928;SDS011;21133;48.048;7.724;2023-03-23T15:00:17;1.50;;;1.40;;
34928;SDS011;21133;48.048;7.724;2023-03-23T15:02:44;4.03;;;1.47;;
34928;SDS011;21133;48.048;7.724;2023-03-23T15:05:13;2.30;;;1.30;;
34928;SDS011;21133;48.048;7.724;2023-03-23T15:07:41;1.50;;;1.40;;
34928;SDS011;21133;48.048;7.724;2023-03-23T15:10:08;0.80;;;0.80;;
34928;SDS011;21133;48.048;7.724;2023-03-23T15:12:37;1.17;;;1.17;;
34928;SDS011;21133;48.048;7.724;2023-03-23T15:15:04;1.27;;;1.27;;
34928;SDS011;21133;48.048;7.724;2023-03-23T15:17:36;1.47;;;1.47;;
34928;SDS011;21133;48.048;7.724;2023-03-23T15:20:10;4.70;;;1.40;;
34928;SDS011;21133;48.048;7.724;2023-03-23T15:22:36;1.40;;;1.40;;
34928;SDS011;21133;48.048;7.724;2023-03-23T15:25:16;2.97;;;1.17;;
34928;SDS011;21133;48.048;7.724;2023-03-23T15:27:44;3.73;;;2.10;;
34928;SDS011;21133;48.048;7.724;2023-03-23T15:30:35;10.10;;;1.63;;
34928;SDS011;21133;48.048;7.724;2023-03-23T15:33:10;2.20;;;2.10;;
34928;SDS011;21133;48.048;7.724;2023-03-23T15:35:37;8.00;;;5.17;;
34928;SDS011;21133;48.048;7.724;2023-03-23T15:38:06;3.33;;;3.13;;
34928;SDS011;21133;48.048;7.724;2023-03-23T15:40:39;1.57;;;1.10;;
34928;SDS011;21133;48.048;7.724;2023-03-23T15:43:24;1.50;;;1.50;;
34928;SDS011;21133;48.048;7.724;2023-03-23T15:51:16;3.30;;;1.17;;
34928;SDS011;21133;48.048;7.724;2023-03-23T15:53:43;3.33;;;1.63;;
34928;SDS011;21133;48.048;7.724;2023-03-23T15:56:10;1.30;;;1.20;;
34928;SDS011;21133;48.048;7.724;2023-03-23T15:58:36;3.30;;;1.13;;
34928;SDS011;21133;48.048;7.724;2023-03-23T16:01:25;2.70;;;1.40;;
34928;SDS011;21133;48.048;7.724;2023-03-23T16:04:13;1.20;;;1.20;;
34928;SDS011;21133;48.048;7.724;2023-03-23T16:06:36;2.23;;;2.13;;
34928;SDS011;21133;48.048;7.724;2023-03-23T16:09:03;1.37;;;1.03;;
34928;SDS011;21133;48.048;7.724;2023-03-23T16:11:30;2.10;;;1.10;;
34928;SDS011;21133;48.048;7.724;2023-03-23T16:13:56;1.10;;;1.10;;
34928;SDS011;21133;48.048;7.724;2023-03-23T16:16:24;1.27;;;1.27;;
34928;SDS011;21133;48.048;7.724;2023-03-23T16:18:51;1.27;;;1.10;;
34928;SDS011;21133;48.048;7.724;2023-03-23T16:21:17;2.63;;;2.53;;
34928;SDS011;21133;48.048;7.724;2023-03-23T16:23:43;3.30;;;3.10;;
34928;SDS011;21133;48.048;7.724;2023-03-23T16:26:10;5.67;;;5.00;;
34928;SDS011;21133;48.048;7.724;2023-03-23T16:28:36;6.53;;;3.50;;
34928;SDS011;21133;48.048;7.724;2023-03-23T16:31:02;4.57;;;4.17;;